Terminal Aerodrome Forecast
Issued by NWS Cleveland, OH

Home | Current Version | Previous Version | Text Only | Print | Product List | Glossary On
Versions: 1 2 3 4 5 6 7 8 9 10 11 12 13 14 15 16 17 18 19 20 21 22 23 24 25
664
FTUS41 KCLE 301004 AAB
TAFMFD
TAF AMD
KMFD 301004Z 3010/0106 08005KT 1SM BR OVC002
     FM301300 12012KT 6SM BR OVC010
     FM301500 17015G25KT P6SM OVC035
     FM301700 19018G30KT P6SM BKN050
      TEMPO 0102/0106 4SM SHRA OVC025=

USA.gov is the U.S. government's official web portal to all federal, state and local government web resources and services.